sensor_id;sensor_type;location;lat;lon;timestamp;pressure;altitude;pressure_sealevel;temperature;humidity
26859;BME280;14429;48.346;16.338;2023-01-27T00:00:30;99906.63;;;10.83;58.77
26859;BME280;14429;48.346;16.338;2023-01-27T00:02:55;99905.31;;;10.76;59.38
26859;BME280;14429;48.346;16.338;2023-01-27T00:05:21;99902.72;;;10.62;60.50
26859;BME280;14429;48.346;16.338;2023-01-27T00:07:47;99905.97;;;10.53;60.33
26859;BME280;14429;48.346;16.338;2023-01-27T00:10:15;99909.16;;;10.72;60.26
26859;BME280;14429;48.346;16.338;2023-01-27T00:12:42;99907.25;;;10.74;59.89
26859;BME280;14429;48.346;16.338;2023-01-27T00:15:09;99903.44;;;10.78;59.33
26859;BME280;14429;48.346;16.338;2023-01-27T00:17:35;99905.59;;;10.85;58.85
26859;BME280;14429;48.346;16.338;2023-01-27T00:20:01;99907.75;;;10.93;58.47
26859;BME280;14429;48.346;16.338;2023-01-27T00:22:27;99903.56;;;10.89;58.25
26859;BME280;14429;48.346;16.338;2023-01-27T00:24:53;99906.88;;;10.80;58.37
26859;BME280;14429;48.346;16.338;2023-01-27T00:27:19;99906.59;;;10.71;59.20
26859;BME280;14429;48.346;16.338;2023-01-27T00:29:44;99909.75;;;10.63;60.04
26859;BME280;14429;48.346;16.338;2023-01-27T00:32:10;99917.84;;;10.36;60.18
26859;BME280;14429;48.346;16.338;2023-01-27T00:34:35;99915.09;;;10.63;59.97
26859;BME280;14429;48.346;16.338;2023-01-27T00:37:00;99920.03;;;10.69;59.68
26859;BME280;14429;48.346;16.338;2023-01-27T00:39:26;99905.31;;;10.50;58.91
26859;BME280;14429;48.346;16.338;2023-01-27T00:41:53;99904.03;;;10.69;58.99
26859;BME280;14429;48.346;16.338;2023-01-27T00:44:18;99901.72;;;10.77;58.47
26859;BME280;14429;48.346;16.338;2023-01-27T00:46:44;99898.28;;;10.75;57.87
26859;BME280;14429;48.346;16.338;2023-01-27T00:49:10;99908.75;;;10.78;58.16
26859;BME280;14429;48.346;16.338;2023-01-27T00:51:35;99909.16;;;10.72;59.06
26859;BME280;14429;48.346;16.338;2023-01-27T00:54:01;99912.94;;;10.56;59.73
26859;BME280;14429;48.346;16.338;2023-01-27T00:56:26;99915.47;;;10.57;60.23
26859;BME280;14429;48.346;16.338;2023-01-27T00:58:53;99924.81;;;10.64;59.72
26859;BME280;14429;48.346;16.338;2023-01-27T01:01:19;99918.53;;;10.65;59.40
26859;BME280;14429;48.346;16.338;2023-01-27T01:03:44;99922.47;;;10.72;59.05
26859;BME280;14429;48.346;16.338;2023-01-27T01:06:14;99920.38;;;10.77;58.60
26859;BME280;14429;48.346;16.338;2023-01-27T01:08:40;99931.06;;;10.77;58.28
26859;BME280;14429;48.346;16.338;2023-01-27T01:11:06;99920.94;;;10.82;57.91
26859;BME280;14429;48.346;16.338;2023-01-27T01:13:32;99918.97;;;10.72;58.00
26859;BME280;14429;48.346;16.338;2023-01-27T01:16:03;99922.56;;;10.58;58.93
26859;BME280;14429;48.346;16.338;2023-01-27T01:18:29;99917.59;;;10.52;59.77
26859;BME280;14429;48.346;16.338;2023-01-27T01:20:54;99911.53;;;10.50;60.16
26859;BME280;14429;48.346;16.338;2023-01-27T01:23:20;99912.44;;;10.63;59.43
26859;BME280;14429;48.346;16.338;2023-01-27T01:25:51;99917.03;;;10.61;59.21
26859;BME280;14429;48.346;16.338;2023-01-27T01:28:17;99907.44;;;10.71;58.59
26859;BME280;14429;48.346;16.338;2023-01-27T01:30:42;99916.88;;;10.77;58.32
26859;BME280;14429;48.346;16.338;2023-01-27T01:33:09;99923.25;;;10.74;57.94
26859;BME280;14429;48.346;16.338;2023-01-27T01:35:36;99913.13;;;10.79;57.54
26859;BME280;14429;48.346;16.338;2023-01-27T01:38:02;99911.06;;;10.70;57.68
26859;BME280;14429;48.346;16.338;2023-01-27T01:40:27;99913.19;;;10.65;58.52
26859;BME280;14429;48.346;16.338;2023-01-27T01:42:54;99907.50;;;10.57;59.22
26859;BME280;14429;48.346;16.338;2023-01-27T01:45:47;99906.47;;;10.46;59.80
26859;BME280;14429;48.346;16.338;2023-01-27T01:48:18;99907.72;;;10.54;59.41
26859;BME280;14429;48.346;16.338;2023-01-27T01:50:48;99903.38;;;10.66;58.55
26859;BME280;14429;48.346;16.338;2023-01-27T01:53:15;99906.91;;;10.66;58.42
26859;BME280;14429;48.346;16.338;2023-01-27T01:55:41;99903.38;;;10.66;58.23
26859;BME280;14429;48.346;16.338;2023-01-27T01:58:09;99899.66;;;10.68;57.74
26859;BME280;14429;48.346;16.338;2023-01-27T02:00:36;99895.53;;;10.77;57.34
26859;BME280;14429;48.346;16.338;2023-01-27T02:03:02;99903.28;;;10.67;57.46
26859;BME280;14429;48.346;16.338;2023-01-27T02:05:32;99900.38;;;10.58;58.15
26859;BME280;14429;48.346;16.338;2023-01-27T02:08:03;99898.22;;;10.50;59.06
26859;BME280;14429;48.346;16.338;2023-01-27T02:10:31;99903.72;;;10.48;59.63
26859;BME280;14429;48.346;16.338;2023-01-27T02:12:57;99902.38;;;10.54;59.05
26859;BME280;14429;48.346;16.338;2023-01-27T02:15:22;99901.22;;;10.58;58.58
26859;BME280;14429;48.346;16.338;2023-01-27T02:17:48;99897.47;;;10.61;58.30
26859;BME280;14429;48.346;16.338;2023-01-27T02:20:18;99899.28;;;10.60;58.05
26859;BME280;14429;48.346;16.338;2023-01-27T02:22:55;99895.28;;;10.67;57.53
26859;BME280;14429;48.346;16.338;2023-01-27T02:28:01;99892.56;;;10.55;57.70
26859;BME280;14429;48.346;16.338;2023-01-27T02:30:27;99884.72;;;10.40;58.75
26859;BME280;14429;48.346;16.338;2023-01-27T02:32:53;99888.53;;;10.36;59.37
26859;BME280;14429;48.346;16.338;2023-01-27T02:35:21;99886.03;;;10.47;59.36
26859;BME280;14429;48.346;16.338;2023-01-27T02:37:50;99882.00;;;10.53;58.82
26859;BME280;14429;48.346;16.338;2023-01-27T02:40:16;99875.31;;;10.60;58.31
26859;BME280;14429;48.346;16.338;2023-01-27T02:42:42;99881.41;;;10.62;57.89
26859;BME280;14429;48.346;16.338;2023-01-27T02:45:09;99883.09;;;10.63;57.60
26859;BME280;14429;48.346;16.338;2023-01-27T02:47:35;99878.44;;;10.67;57.20
26859;BME280;14429;48.346;16.338;2023-01-27T02:50:00;99867.66;;;10.68;57.08
26859;BME280;14429;48.346;16.338;2023-01-27T02:52:26;99875.31;;;10.60;57.23
26859;BME280;14429;48.346;16.338;2023-01-27T02:54:51;99865.34;;;10.50;58.01
26859;BME280;14429;48.346;16.338;2023-01-27T02:57:16;99868.25;;;10.33;59.13
26859;BME280;14429;48.346;16.338;2023-01-27T02:59:42;99864.75;;;10.33;59.62
26859;BME280;14429;48.346;16.338;2023-01-27T03:02:09;99859.56;;;10.44;58.76
26859;BME280;14429;48.346;16.338;2023-01-27T03:04:34;99859.81;;;10.53;58.31
26859;BME280;14429;48.346;16.338;2023-01-27T03:06:59;99866.88;;;10.54;57.92
26859;BME280;14429;48.346;16.338;2023-01-27T03:09:25;99864.09;;;10.55;57.72
26859;BME280;14429;48.346;16.338;2023-01-27T03:11:50;99860.28;;;10.59;57.20
26859;BME280;14429;48.346;16.338;2023-01-27T03:14:16;99855.59;;;10.63;56.90
26859;BME280;14429;48.346;16.338;2023-01-27T03:16:41;99857.91;;;10.55;57.17
26859;BME280;14429;48.346;16.338;2023-01-27T03:19:08;99855.41;;;10.40;57.96
26859;BME280;14429;48.346;16.338;2023-01-27T03:21:33;99853.66;;;10.39;58.58
26859;BME280;14429;48.346;16.338;2023-01-27T03:23:59;99851.72;;;10.28;58.84
26859;BME280;14429;48.346;16.338;2023-01-27T03:26:24;99851.66;;;10.42;58.66
26859;BME280;14429;48.346;16.338;2023-01-27T03:28:50;99857.25;;;10.51;58.03
26859;BME280;14429;48.346;16.338;2023-01-27T03:31:15;99862.13;;;10.45;57.88
26859;BME280;14429;48.346;16.338;2023-01-27T03:33:40;99859.16;;;10.49;57.43
26859;BME280;14429;48.346;16.338;2023-01-27T03:36:07;99857.91;;;10.55;57.03
26859;BME280;14429;48.346;16.338;2023-01-27T03:38:33;99846.81;;;10.61;56.81
26859;BME280;14429;48.346;16.338;2023-01-27T03:40:58;99853.91;;;10.62;56.57
26859;BME280;14429;48.346;16.338;2023-01-27T03:43:24;99850.94;;;10.40;57.75
26859;BME280;14429;48.346;16.338;2023-01-27T03:45:50;99854.59;;;10.25;58.72
26859;BME280;14429;48.346;16.338;2023-01-27T03:48:15;99850.66;;;10.31;59.00
26859;BME280;14429;48.346;16.338;2023-01-27T03:50:41;99844.63;;;10.41;58.30
26859;BME280;14429;48.346;16.338;2023-01-27T03:53:08;99842.50;;;10.46;57.91
26859;BME280;14429;48.346;16.338;2023-01-27T03:55:35;99844.91;;;10.50;57.38
26859;BME280;14429;48.346;16.338;2023-01-27T03:58:01;99843.16;;;10.49;57.28
26859;BME280;14429;48.346;16.338;2023-01-27T04:00:26;99833.81;;;10.56;56.78
26859;BME280;14429;48.346;16.338;2023-01-27T04:02:52;99842.78;;;10.55;56.62
26859;BME280;14429;48.346;16.338;2023-01-27T04:05:17;99841.13;;;10.41;56.86
26859;BME280;14429;48.346;16.338;2023-01-27T04:07:43;99844.16;;;10.35;57.42
26859;BME280;14429;48.346;16.338;2023-01-27T04:10:10;99839.91;;;10.32;58.03
26859;BME280;14429;48.346;16.338;2023-01-27T04:12:35;99840.63;;;10.08;58.56
26859;BME280;14429;48.346;16.338;2023-01-27T04:15:01;99850.13;;;10.26;58.59
26859;BME280;14429;48.346;16.338;2023-01-27T04:17:26;99853.97;;;10.34;58.03
26859;BME280;14429;48.346;16.338;2023-01-27T04:19:52;99848.16;;;10.42;57.39
26859;BME280;14429;48.346;16.338;2023-01-27T04:22:17;99846.78;;;10.49;57.13
26859;BME280;14429;48.346;16.338;2023-01-27T04:24:43;99850.97;;;10.52;56.55
26859;BME280;14429;48.346;16.338;2023-01-27T04:27:11;99849.81;;;10.56;56.41
26859;BME280;14429;48.346;16.338;2023-01-27T04:29:38;99852.53;;;10.43;56.36
26859;BME280;14429;48.346;16.338;2023-01-27T04:32:04;99855.59;;;10.37;56.89
26859;BME280;14429;48.346;16.338;2023-01-27T04:34:31;99858.66;;;10.31;57.63
26859;BME280;14429;48.346;16.338;2023-01-27T04:36:57;99855.81;;;10.20;58.67
26859;BME280;14429;48.346;16.338;2023-01-27T04:39:23;99861.53;;;10.28;58.44
26859;BME280;14429;48.346;16.338;2023-01-27T04:41:48;99859.97;;;10.38;57.72
26859;BME280;14429;48.346;16.338;2023-01-27T04:44:15;99857.00;;;10.42;57.13
26859;BME280;14429;48.346;16.338;2023-01-27T04:46:40;99860.53;;;10.43;56.97
26859;BME280;14429;48.346;16.338;2023-01-27T04:49:06;99866.22;;;10.50;56.42
26859;BME280;14429;48.346;16.338;2023-01-27T04:51:32;99866.97;;;10.52;56.00
26859;BME280;14429;48.346;16.338;2023-01-27T04:53:58;99853.94;;;10.48;56.31
26859;BME280;14429;48.346;16.338;2023-01-27T04:56:25;99847.41;;;10.40;56.47
26859;BME280;14429;48.346;16.338;2023-01-27T04:58:52;99849.72;;;10.32;57.72
26859;BME280;14429;48.346;16.338;2023-01-27T05:01:19;99855.75;;;10.22;58.42
26859;BME280;14429;48.346;16.338;2023-01-27T05:03:45;99858.97;;;10.26;57.99
26859;BME280;14429;48.346;16.338;2023-01-27T05:06:11;99865.50;;;10.35;57.61
26859;BME280;14429;48.346;16.338;2023-01-27T05:08:36;99862.75;;;10.36;57.29
26859;BME280;14429;48.346;16.338;2023-01-27T05:11:03;99862.44;;;10.41;57.86
26859;BME280;14429;48.346;16.338;2023-01-27T05:13:29;99860.63;;;10.41;57.77
26859;BME280;14429;48.346;16.338;2023-01-27T05:16:03;99853.78;;;10.37;57.90
26859;BME280;14429;48.346;16.338;2023-01-27T05:18:30;99852.94;;;10.37;57.97
26859;BME280;14429;48.346;16.338;2023-01-27T05:20:57;99856.75;;;10.33;58.05
26859;BME280;14429;48.346;16.338;2023-01-27T05:23:23;99851.22;;;10.36;57.99
26859;BME280;14429;48.346;16.338;2023-01-27T05:25:48;99849.72;;;10.32;58.38
26859;BME280;14429;48.346;16.338;2023-01-27T05:28:13;99864.41;;;10.25;58.45
26859;BME280;14429;48.346;16.338;2023-01-27T05:30:39;99860.88;;;10.24;58.61
26859;BME280;14429;48.346;16.338;2023-01-27T05:33:04;99857.16;;;10.27;58.21
26859;BME280;14429;48.346;16.338;2023-01-27T05:35:33;99860.78;;;10.26;58.34
26859;BME280;14429;48.346;16.338;2023-01-27T05:37:59;99864.59;;;10.22;58.63
26859;BME280;14429;48.346;16.338;2023-01-27T05:40:24;99864.41;;;10.25;58.52
26859;BME280;14429;48.346;16.338;2023-01-27T05:42:50;99857.38;;;10.24;58.49
26859;BME280;14429;48.346;16.338;2023-01-27T05:45:15;99864.47;;;10.23;58.43
26859;BME280;14429;48.346;16.338;2023-01-27T05:47:41;99862.69;;;10.24;58.56
26859;BME280;14429;48.346;16.338;2023-01-27T05:50:07;99859.25;;;10.22;58.58
26859;BME280;14429;48.346;16.338;2023-01-27T05:52:34;99862.69;;;10.24;58.61
26859;BME280;14429;48.346;16.338;2023-01-27T05:55:00;99855.09;;;10.18;58.63
26859;BME280;14429;48.346;16.338;2023-01-27T05:57:25;99865.56;;;10.21;58.55
26859;BME280;14429;48.346;16.338;2023-01-27T05:59:50;99859.56;;;10.18;58.68
26859;BME280;14429;48.346;16.338;2023-01-27T06:02:16;99872.03;;;10.17;58.64
26859;BME280;14429;48.346;16.338;2023-01-27T06:04:41;99859.63;;;10.16;58.80
26859;BME280;14429;48.346;16.338;2023-01-27T06:07:07;99866.91;;;10.14;58.77
26859;BME280;14429;48.346;16.338;2023-01-27T06:09:33;99871.38;;;10.14;58.79
26859;BME280;14429;48.346;16.338;2023-01-27T06:11:59;99876.78;;;10.12;58.74
26859;BME280;14429;48.346;16.338;2023-01-27T06:14:24;99873.19;;;10.13;58.86
26859;BME280;14429;48.346;16.338;2023-01-27T06:16:49;99886.41;;;10.15;58.88
26859;BME280;14429;48.346;16.338;2023-01-27T06:19:15;99881.25;;;10.12;58.75
26859;BME280;14429;48.346;16.338;2023-01-27T06:21:40;99889.34;;;10.10;58.93
26859;BME280;14429;48.346;16.338;2023-01-27T06:24:06;99877.94;;;10.08;58.97
26859;BME280;14429;48.346;16.338;2023-01-27T06:26:33;99872.41;;;10.11;59.01
26859;BME280;14429;48.346;16.338;2023-01-27T06:28:58;99872.59;;;10.08;59.02
26859;BME280;14429;48.346;16.338;2023-01-27T06:31:24;99874.53;;;10.06;59.01
26859;BME280;14429;48.346;16.338;2023-01-27T06:33:49;99885.19;;;10.06;59.19
26859;BME280;14429;48.346;16.338;2023-01-27T06:36:17;99881.56;;;10.07;59.14
26859;BME280;14429;48.346;16.338;2023-01-27T06:38:43;99880.22;;;10.00;59.20
26859;BME280;14429;48.346;16.338;2023-01-27T06:41:09;99878.53;;;9.99;59.39
26859;BME280;14429;48.346;16.338;2023-01-27T06:43:36;99874.91;;;10.00;59.00
26859;BME280;14429;48.346;16.338;2023-01-27T06:46:02;99880.03;;;10.03;59.12
26859;BME280;14429;48.346;16.338;2023-01-27T06:48:27;99879.94;;;9.77;58.69
26859;BME280;14429;48.346;16.338;2023-01-27T06:50:53;99872.81;;;9.64;56.63
26859;BME280;14429;48.346;16.338;2023-01-27T06:53:19;99880.16;;;9.88;59.51
26859;BME280;14429;48.346;16.338;2023-01-27T06:55:45;99888.63;;;9.95;59.49
26859;BME280;14429;48.346;16.338;2023-01-27T06:58:11;99893.53;;;10.00;59.16
26859;BME280;14429;48.346;16.338;2023-01-27T07:00:39;99889.66;;;9.92;59.33
26859;BME280;14429;48.346;16.338;2023-01-27T07:03:05;99880.63;;;9.95;59.21
26859;BME280;14429;48.346;16.338;2023-01-27T07:05:31;99890.69;;;9.90;59.29
26859;BME280;14429;48.346;16.338;2023-01-27T07:07:56;99895.28;;;9.88;59.40
26859;BME280;14429;48.346;16.338;2023-01-27T07:10:22;99888.88;;;9.90;59.34
26859;BME280;14429;48.346;16.338;2023-01-27T07:12:47;99890.22;;;9.97;59.35
26859;BME280;14429;48.346;16.338;2023-01-27T07:15:13;99895.09;;;9.91;59.39
26859;BME280;14429;48.346;16.338;2023-01-27T07:17:40;99887.47;;;9.98;59.35
26859;BME280;14429;48.346;16.338;2023-01-27T07:20:07;99902.97;;;9.92;59.25
26859;BME280;14429;48.346;16.338;2023-01-27T07:22:33;99900.03;;;9.96;59.11
26859;BME280;14429;48.346;16.338;2023-01-27T07:25:00;99902.38;;;10.01;59.14
26859;BME280;14429;48.346;16.338;2023-01-27T07:27:25;99912.72;;;9.64;58.83
26859;BME280;14429;48.346;16.338;2023-01-27T07:29:50;99907.75;;;9.87;59.51
26859;BME280;14429;48.346;16.338;2023-01-27T07:32:16;99908.41;;;9.91;59.51
26859;BME280;14429;48.346;16.338;2023-01-27T07:34:43;99908.41;;;9.91;59.35
26859;BME280;14429;48.346;16.338;2023-01-27T07:37:09;99923.81;;;9.86;59.27
26859;BME280;14429;48.346;16.338;2023-01-27T07:39:35;99910.13;;;9.92;59.44
26859;BME280;14429;48.346;16.338;2023-01-27T07:42:00;99912.38;;;9.97;59.37
26859;BME280;14429;48.346;16.338;2023-01-27T07:44:26;99907.47;;;9.92;59.21
26859;BME280;14429;48.346;16.338;2023-01-27T07:46:51;99914.28;;;9.96;59.32
26859;BME280;14429;48.346;16.338;2023-01-27T07:49:17;99913.75;;;9.91;59.19
26859;BME280;14429;48.346;16.338;2023-01-27T07:51:44;99912.78;;;9.92;59.37
26859;BME280;14429;48.346;16.338;2023-01-27T07:54:09;99910.13;;;9.92;59.16
26859;BME280;14429;48.346;16.338;2023-01-27T07:56:35;99910.66;;;9.96;59.21
26859;BME280;14429;48.346;16.338;2023-01-27T07:59:00;99915.25;;;9.95;59.04
26859;BME280;14429;48.346;16.338;2023-01-27T08:01:26;99925.31;;;9.90;59.23
26859;BME280;14429;48.346;16.338;2023-01-27T08:03:51;99912.84;;;9.90;59.20
26859;BME280;14429;48.346;16.338;2023-01-27T08:06:17;99909.94;;;9.95;59.17
26859;BME280;14429;48.346;16.338;2023-01-27T08:08:43;99911.06;;;9.91;59.31
26859;BME280;14429;48.346;16.338;2023-01-27T08:11:11;99915.53;;;9.90;59.31
26859;BME280;14429;48.346;16.338;2023-01-27T08:13:37;99920.00;;;9.90;59.41
26859;BME280;14429;48.346;16.338;2023-01-27T08:16:04;99924.66;;;9.86;59.14
26859;BME280;14429;48.346;16.338;2023-01-27T08:18:29;99932.38;;;9.91;59.06
26859;BME280;14429;48.346;16.338;2023-01-27T08:20:58;99936.75;;;9.92;59.18
26859;BME280;14429;48.346;16.338;2023-01-27T08:23:24;99923.44;;;9.92;59.01
26859;BME280;14429;48.346;16.338;2023-01-27T08:25:51;99930.66;;;9.90;59.12
26859;BME280;14429;48.346;16.338;2023-01-27T08:28:17;99927.13;;;9.89;59.20
26859;BME280;14429;48.346;16.338;2023-01-27T08:30:43;99924.56;;;9.88;59.32
26859;BME280;14429;48.346;16.338;2023-01-27T08:33:08;99925.75;;;9.82;59.07
26859;BME280;14429;48.346;16.338;2023-01-27T08:35:34;99933.28;;;9.76;59.25
26859;BME280;14429;48.346;16.338;2023-01-27T08:37:59;99933.28;;;9.76;59.03
26859;BME280;14429;48.346;16.338;2023-01-27T08:40:25;99931.78;;;9.72;59.22
26859;BME280;14429;48.346;16.338;2023-01-27T08:42:51;99932.25;;;9.65;58.98
26859;BME280;14429;48.346;16.338;2023-01-27T08:45:17;99938.81;;;9.73;59.14
26859;BME280;14429;48.346;16.338;2023-01-27T08:47:42;99935.66;;;9.80;59.29
26859;BME280;14429;48.346;16.338;2023-01-27T08:50:09;99940.16;;;9.80;59.57
26859;BME280;14429;48.346;16.338;2023-01-27T08:52:34;99944.78;;;9.76;59.36
26859;BME280;14429;48.346;16.338;2023-01-27T08:55:00;99949.66;;;9.84;59.42
26859;BME280;14429;48.346;16.338;2023-01-27T08:57:25;99941.47;;;9.87;59.24
26859;BME280;14429;48.346;16.338;2023-01-27T08:59:52;99942.66;;;9.40;56.44
26859;BME280;14429;48.346;16.338;2023-01-27T09:02:17;99946.50;;;9.77;59.23
26859;BME280;14429;48.346;16.338;2023-01-27T09:04:43;99938.63;;;9.76;59.50
26859;BME280;14429;48.346;16.338;2023-01-27T09:07:08;99954.38;;;9.79;59.50
26859;BME280;14429;48.346;16.338;2023-01-27T09:09:34;99949.84;;;9.81;59.33
26859;BME280;14429;48.346;16.338;2023-01-27T09:11:59;99947.16;;;9.81;59.30
26859;BME280;14429;48.346;16.338;2023-01-27T09:14:25;99959.75;;;9.07;55.85
26859;BME280;14429;48.346;16.338;2023-01-27T09:16:52;99963.13;;;9.53;59.77
26859;BME280;14429;48.346;16.338;2023-01-27T09:19:17;99958.84;;;9.51;59.35
26859;BME280;14429;48.346;16.338;2023-01-27T09:21:43;99954.88;;;9.00;57.71
26859;BME280;14429;48.346;16.338;2023-01-27T09:24:09;99954.66;;;8.89;54.27
26859;BME280;14429;48.346;16.338;2023-01-27T09:26:34;99963.34;;;8.62;54.63
26859;BME280;14429;48.346;16.338;2023-01-27T09:29:00;99959.03;;;8.90;58.77
26859;BME280;14429;48.346;16.338;2023-01-27T09:31:25;99958.94;;;8.91;60.66
26859;BME280;14429;48.346;16.338;2023-01-27T09:33:52;99959.00;;;9.05;60.96
26859;BME280;14429;48.346;16.338;2023-01-27T09:36:19;99963.03;;;9.26;60.35
26859;BME280;14429;48.346;16.338;2023-01-27T09:38:47;99970.56;;;7.98;54.20
26859;BME280;14429;48.346;16.338;2023-01-27T09:41:32;99969.38;;;8.50;61.27
26859;BME280;14429;48.346;16.338;2023-01-27T09:44:27;99969.09;;;8.55;61.35
26859;BME280;14429;48.346;16.338;2023-01-27T09:47:06;99972.88;;;7.23;53.60
26859;BME280;14429;48.346;16.338;2023-01-27T09:49:50;99965.69;;;7.90;62.64
26859;BME280;14429;48.346;16.338;2023-01-27T09:52:39;99980.88;;;7.72;55.75
26859;BME280;14429;48.346;16.338;2023-01-27T09:55:13;99972.19;;;8.00;62.74
26859;BME280;14429;48.346;16.338;2023-01-27T09:57:48;99981.69;;;8.21;61.02
26859;BME280;14429;48.346;16.338;2023-01-27T10:00:26;99969.00;;;8.87;62.22
26859;BME280;14429;48.346;16.338;2023-01-27T10:03:17;99966.25;;;8.12;59.34
26859;BME280;14429;48.346;16.338;2023-01-27T10:09:19;99971.16;;;8.03;61.36
26859;BME280;14429;48.346;16.338;2023-01-27T10:11:55;99972.94;;;8.34;62.02
26859;BME280;14429;48.346;16.338;2023-01-27T10:14:30;99959.31;;;8.70;61.97
26859;BME280;14429;48.346;16.338;2023-01-27T10:17:09;99960.09;;;8.72;58.92
26859;BME280;14429;48.346;16.338;2023-01-27T10:19:51;99949.53;;;8.71;60.32
26859;BME280;14429;48.346;16.338;2023-01-27T10:22:24;99955.66;;;8.42;56.28
26859;BME280;14429;48.346;16.338;2023-01-27T10:25:06;99949.06;;;8.49;59.43
26859;BME280;14429;48.346;16.338;2023-01-27T10:27:35;99948.47;;;8.88;61.76
26859;BME280;14429;48.346;16.338;2023-01-27T10:30:08;99953.13;;;9.14;61.24
26859;BME280;14429;48.346;16.338;2023-01-27T10:32:42;99940.63;;;9.01;60.92
26859;BME280;14429;48.346;16.338;2023-01-27T10:35:15;99938.44;;;8.78;56.88
26859;BME280;14429;48.346;16.338;2023-01-27T10:37:48;99943.84;;;9.21;60.87
26859;BME280;14429;48.346;16.338;2023-01-27T10:40:21;99943.47;;;9.27;60.56
26859;BME280;14429;48.346;16.338;2023-01-27T10:42:53;99951.91;;;8.90;59.89
26859;BME280;14429;48.346;16.338;2023-01-27T10:45:29;99950.28;;;8.88;60.90
26859;BME280;14429;48.346;16.338;2023-01-27T10:50:51;99950.13;;;9.20;60.75
26859;BME280;14429;48.346;16.338;2023-01-27T10:53:24;99955.00;;;9.12;59.84
26859;BME280;14429;48.346;16.338;2023-01-27T10:55:57;99946.00;;;9.43;60.49
26859;BME280;14429;48.346;16.338;2023-01-27T10:58:33;99948.38;;;9.05;58.61
26859;BME280;14429;48.346;16.338;2023-01-27T11:01:03;99934.25;;;9.18;60.09
26859;BME280;14429;48.346;16.338;2023-01-27T11:03:33;99940.00;;;8.82;59.44
26859;BME280;14429;48.346;16.338;2023-01-27T11:06:03;99945.09;;;8.26;55.19
26859;BME280;14429;48.346;16.338;2023-01-27T11:08:33;99938.47;;;9.07;60.82
26859;BME280;14429;48.346;16.338;2023-01-27T11:11:03;99940.41;;;9.19;60.79
26859;BME280;14429;48.346;16.338;2023-01-27T11:13:30;99935.91;;;9.35;60.72
26859;BME280;14429;48.346;16.338;2023-01-27T11:15:57;99937.53;;;9.08;59.86
26859;BME280;14429;48.346;16.338;2023-01-27T11:18:25;99938.56;;;8.77;58.50
26859;BME280;14429;48.346;16.338;2023-01-27T11:20:52;99939.13;;;8.82;61.00
26859;BME280;14429;48.346;16.338;2023-01-27T11:23:21;99936.53;;;8.51;56.08
26859;BME280;14429;48.346;16.338;2023-01-27T11:25:54;99933.09;;;8.34;58.95
26859;BME280;14429;48.346;16.338;2023-01-27T11:28:30;99942.78;;;8.50;57.91
26859;BME280;14429;48.346;16.338;2023-01-27T11:31:04;99940.72;;;8.55;60.91
26859;BME280;14429;48.346;16.338;2023-01-27T11:33:45;99939.75;;;8.87;61.97
26859;BME280;14429;48.346;16.338;2023-01-27T11:36:13;99935.59;;;8.37;60.58
26859;BME280;14429;48.346;16.338;2023-01-27T11:38:38;99938.22;;;8.07;55.23
26859;BME280;14429;48.346;16.338;2023-01-27T11:41:04;99939.84;;;8.70;62.20
26859;BME280;14429;48.346;16.338;2023-01-27T11:43:31;99928.63;;;9.09;61.50
26859;BME280;14429;48.346;16.338;2023-01-27T11:46:00;99928.84;;;9.34;60.88
26859;BME280;14429;48.346;16.338;2023-01-27T11:48:35;99923.66;;;9.03;60.31
26859;BME280;14429;48.346;16.338;2023-01-27T11:51:02;99922.91;;;9.15;60.70
26859;BME280;14429;48.346;16.338;2023-01-27T11:53:29;99926.50;;;9.43;60.55
26859;BME280;14429;48.346;16.338;2023-01-27T11:56:03;99916.53;;;9.46;60.37
26859;BME280;14429;48.346;16.338;2023-01-27T11:58:33;99912.63;;;9.52;60.33
26859;BME280;14429;48.346;16.338;2023-01-27T12:01:02;99916.25;;;9.51;60.15
26859;BME280;14429;48.346;16.338;2023-01-27T12:03:43;99908.72;;;9.43;59.27
26859;BME280;14429;48.346;16.338;2023-01-27T12:06:13;99905.44;;;9.54;59.91
26859;BME280;14429;48.346;16.338;2023-01-27T12:08:41;99905.50;;;9.52;59.90
26859;BME280;14429;48.346;16.338;2023-01-27T12:11:22;99909.31;;;9.62;59.70
26859;BME280;14429;48.346;16.338;2023-01-27T12:13:52;99901.22;;;9.64;59.76
26859;BME280;14429;48.346;16.338;2023-01-27T12:16:18;99891.44;;;9.64;59.65
26859;BME280;14429;48.346;16.338;2023-01-27T12:18:53;99896.97;;;9.61;59.28
26859;BME280;14429;48.346;16.338;2023-01-27T12:21:20;99891.88;;;8.58;51.67
26859;BME280;14429;48.346;16.338;2023-01-27T12:23:57;99890.31;;;9.12;59.72
26859;BME280;14429;48.346;16.338;2023-01-27T12:26:32;99896.34;;;8.11;53.02
26859;BME280;14429;48.346;16.338;2023-01-27T12:29:03;99901.75;;;8.85;60.71
26859;BME280;14429;48.346;16.338;2023-01-27T12:31:31;99894.28;;;8.01;55.03
26859;BME280;14429;48.346;16.338;2023-01-27T12:34:16;99901.94;;;6.78;52.10
26859;BME280;14429;48.346;16.338;2023-01-27T12:36:46;99904.84;;;7.71;62.32
26859;BME280;14429;48.346;16.338;2023-01-27T12:39:25;99896.19;;;7.35;56.38
26859;BME280;14429;48.346;16.338;2023-01-27T12:41:51;99897.03;;;7.53;54.96
26859;BME280;14429;48.346;16.338;2023-01-27T12:44:19;99895.31;;;7.03;62.95
26859;BME280;14429;48.346;16.338;2023-01-27T12:46:56;99890.31;;;6.80;52.82
26859;BME280;14429;48.346;16.338;2023-01-27T12:49:24;99894.16;;;7.40;61.95
26859;BME280;14429;48.346;16.338;2023-01-27T12:51:54;99901.75;;;7.78;62.13
26859;BME280;14429;48.346;16.338;2023-01-27T12:54:21;99905.31;;;7.47;59.94
26859;BME280;14429;48.346;16.338;2023-01-27T12:56:48;99894.94;;;7.89;63.08
26859;BME280;14429;48.346;16.338;2023-01-27T12:59:16;99900.31;;;7.41;56.05
26859;BME280;14429;48.346;16.338;2023-01-27T13:01:56;99894.56;;;7.65;61.52
26859;BME280;14429;48.346;16.338;2023-01-27T13:04:23;99887.47;;;8.28;62.33
26859;BME280;14429;48.346;16.338;2023-01-27T13:06:50;99900.22;;;7.74;57.62